createdAt,value
2019-05-19T00:01:00.236Z,25.97
2019-05-19T00:03:27.436Z,25.00
2019-05-19T00:05:54.632Z,24.77
2019-05-19T00:08:21.836Z,26.23
2019-05-19T00:10:49.012Z,26.33
2019-05-19T00:13:16.206Z,26.47
2019-05-19T00:15:43.405Z,24.50
2019-05-19T00:18:10.660Z,26.33
2019-05-19T00:20:37.853Z,25.10
2019-05-19T00:23:05.052Z,23.27
2019-05-19T00:25:33.017Z,24.10
2019-05-19T00:28:00.292Z,26.37
2019-05-19T00:30:27.509Z,26.03
2019-05-19T00:32:54.781Z,28.40
2019-05-19T00:35:22.033Z,25.57
2019-05-19T00:37:49.309Z,25.40
2019-05-19T00:40:16.501Z,24.60
2019-05-19T00:42:43.696Z,28.30
2019-05-19T00:45:11.087Z,27.30
2019-05-19T00:47:38.584Z,26.63
2019-05-19T00:50:06.837Z,27.87
2019-05-19T00:52:34.124Z,26.30
2019-05-19T00:55:01.321Z,26.80
2019-05-19T00:57:29.101Z,25.73
2019-05-19T00:59:56.708Z,27.40
2019-05-19T01:02:23.885Z,25.33
2019-05-19T01:04:51.081Z,29.63
2019-05-19T01:07:18.576Z,27.30
2019-05-19T01:09:45.768Z,26.57
2019-05-19T01:12:12.950Z,26.00
2019-05-19T01:14:40.141Z,25.67
2019-05-19T01:17:07.310Z,26.50
2019-05-19T01:19:34.500Z,27.20
2019-05-19T01:22:01.792Z,26.37
2019-05-19T01:24:28.977Z,25.77
2019-05-19T01:26:56.285Z,23.53
2019-05-19T01:29:25.393Z,24.00
2019-05-19T01:31:52.680Z,26.20
2019-05-19T01:34:19.873Z,24.43
2019-05-19T01:36:47.076Z,24.30
2019-05-19T01:39:14.268Z,24.50
2019-05-19T01:41:41.452Z,27.10
2019-05-19T01:44:08.631Z,27.10
2019-05-19T01:46:35.837Z,26.17
2019-05-19T01:49:03.113Z,27.50
2019-05-19T01:51:30.308Z,26.13
2019-05-19T01:53:57.512Z,28.70
2019-05-19T01:56:24.741Z,26.43
2019-05-19T01:58:51.929Z,28.50
2019-05-19T02:01:19.130Z,26.83
2019-05-19T02:03:46.316Z,30.90
2019-05-19T02:06:13.503Z,32.23
2019-05-19T02:08:40.706Z,30.70
2019-05-19T02:11:07.900Z,34.07
2019-05-19T02:13:35.296Z,30.20
2019-05-19T02:16:02.470Z,31.30
2019-05-19T02:18:31.553Z,31.47
2019-05-19T02:20:58.747Z,33.60
2019-05-19T02:23:25.948Z,34.97
2019-05-19T02:25:53.168Z,32.73
2019-05-19T02:28:20.354Z,34.93
2019-05-19T02:30:47.621Z,35.10
2019-05-19T02:33:14.864Z,33.87
2019-05-19T02:35:42.104Z,33.80
2019-05-19T02:38:09.309Z,32.20
2019-05-19T02:40:39.299Z,33.73
2019-05-19T02:43:07.385Z,34.33
2019-05-19T02:45:35.465Z,33.27
2019-05-19T02:48:02.855Z,33.17
2019-05-19T02:50:31.155Z,34.30
2019-05-19T02:52:59.767Z,34.13
2019-05-19T02:55:27.763Z,29.97
2019-05-19T02:57:55.453Z,32.13
2019-05-19T03:00:36.903Z,32.00
2019-05-19T03:03:04.852Z,29.43
2019-05-19T03:05:32.029Z,31.53
2019-05-19T03:07:59.120Z,28.60
2019-05-19T03:10:26.318Z,30.13
2019-05-19T03:12:53.531Z,31.77
2019-05-19T03:15:20.830Z,28.00
2019-05-19T03:17:48.023Z,27.63
2019-05-19T03:20:15.189Z,30.73
2019-05-19T03:22:42.380Z,31.47
2019-05-19T03:25:09.572Z,33.20
2019-05-19T03:27:36.781Z,36.17
2019-05-19T03:30:22.378Z,34.67
2019-05-19T03:32:54.006Z,34.17
2019-05-19T03:35:21.226Z,32.80
2019-05-19T03:37:48.422Z,33.83
2019-05-19T03:40:21.624Z,36.37
2019-05-19T03:42:50.189Z,36.30
2019-05-19T03:45:17.385Z,36.37
2019-05-19T03:47:44.601Z,35.77
2019-05-19T03:50:11.804Z,36.10
2019-05-19T03:52:38.984Z,34.63
2019-05-19T03:55:06.205Z,31.60
2019-05-19T03:57:33.392Z,33.07
2019-05-19T04:00:00.583Z,31.97
2019-05-19T04:02:27.762Z,33.43
2019-05-19T04:04:54.957Z,35.00
2019-05-19T04:07:22.137Z,31.83
2019-05-19T04:09:51.162Z,31.40
2019-05-19T04:12:18.430Z,32.77
2019-05-19T04:14:45.618Z,35.83
2019-05-19T04:17:12.806Z,30.87
2019-05-19T04:19:40.010Z,33.53
2019-05-19T04:22:07.196Z,36.80
2019-05-19T04:24:38.168Z,34.83
2019-05-19T04:27:05.365Z,35.70
2019-05-19T04:29:32.538Z,36.27
2019-05-19T04:31:59.725Z,34.03
2019-05-19T04:34:26.945Z,34.60
2019-05-19T04:36:54.537Z,36.10
2019-05-19T04:39:21.723Z,36.53
2019-05-19T04:41:48.938Z,34.37
2019-05-19T04:44:16.124Z,34.80
2019-05-19T04:46:43.341Z,32.20
2019-05-19T04:49:10.548Z,32.73
2019-05-19T04:51:37.716Z,34.73
2019-05-19T04:54:04.904Z,34.60
2019-05-19T04:56:32.109Z,33.20
2019-05-19T04:58:59.403Z,30.83
2019-05-19T05:01:26.597Z,31.67
2019-05-19T05:03:53.789Z,31.63
2019-05-19T05:06:21.063Z,30.57
2019-05-19T05:08:48.257Z,31.50
2019-05-19T05:11:15.441Z,31.70
2019-05-19T05:13:44.153Z,32.13
2019-05-19T05:16:11.344Z,31.30
2019-05-19T05:18:38.550Z,30.60
2019-05-19T05:21:05.721Z,30.93
2019-05-19T05:23:32.916Z,31.93
2019-05-19T05:26:00.148Z,33.80
2019-05-19T05:28:27.349Z,29.67
2019-05-19T05:30:54.552Z,29.83
2019-05-19T05:33:21.748Z,28.50
2019-05-19T05:35:48.920Z,29.57
2019-05-19T05:38:16.148Z,30.37
2019-05-19T05:40:43.444Z,29.67
2019-05-19T05:43:10.649Z,29.10
2019-05-19T05:45:37.852Z,29.97
2019-05-19T05:48:05.081Z,28.60
2019-05-19T05:50:32.246Z,29.37
2019-05-19T05:52:59.447Z,28.20
2019-05-19T05:55:26.648Z,29.47
2019-05-19T05:57:53.873Z,28.70
2019-05-19T06:00:22.965Z,29.40
2019-05-19T06:02:50.171Z,29.13
2019-05-19T06:05:17.510Z,27.20
2019-05-19T06:07:44.649Z,28.70
2019-05-19T06:10:12.026Z,29.07
2019-05-19T06:12:39.224Z,28.83
2019-05-19T06:15:06.959Z,30.90
2019-05-19T06:17:34.237Z,27.23
2019-05-19T06:20:01.425Z,29.60
2019-05-19T06:22:28.722Z,28.93
2019-05-19T06:24:58.989Z,27.73
2019-05-19T06:27:25.006Z,28.07
2019-05-19T06:29:52.206Z,26.43
2019-05-19T06:32:29.257Z,28.87
2019-05-19T06:34:56.434Z,27.70
2019-05-19T06:37:23.632Z,26.80
2019-05-19T06:39:50.856Z,28.00
2019-05-19T06:42:18.056Z,27.60
2019-05-19T06:44:45.235Z,25.50
2019-05-19T06:47:12.421Z,24.97
2019-05-19T06:49:39.620Z,25.57
2019-05-19T06:52:06.791Z,23.33
2019-05-19T06:54:34.112Z,22.67
2019-05-19T06:57:01.285Z,24.00
2019-05-19T06:59:29.288Z,23.80
2019-05-19T07:01:56.489Z,23.00
2019-05-19T07:04:23.671Z,22.20
2019-05-19T07:06:50.892Z,20.67
2019-05-19T07:09:18.169Z,22.33
2019-05-19T07:11:45.396Z,21.20
2019-05-19T07:14:12.631Z,21.97
2019-05-19T07:16:39.908Z,21.63
2019-05-19T07:19:07.100Z,20.47
2019-05-19T07:21:34.325Z,22.80
2019-05-19T07:24:01.509Z,21.43
2019-05-19T07:26:28.709Z,21.50
2019-05-19T07:28:58.875Z,23.10
2019-05-19T07:31:25.005Z,20.40
2019-05-19T07:33:52.180Z,21.73
2019-05-19T07:36:19.384Z,19.90
2019-05-19T07:38:46.665Z,21.30
2019-05-19T07:41:13.892Z,20.93
2019-05-19T07:43:41.077Z,19.53
2019-05-19T07:46:08.280Z,25.70
2019-05-19T07:48:35.458Z,24.40
2019-05-19T07:51:02.723Z,28.10
2019-05-19T07:53:42.198Z,22.00
2019-05-19T07:55:59.168Z,23.60
2019-05-19T07:58:26.741Z,20.77
2019-05-19T08:00:53.936Z,26.73
2019-05-19T08:03:21.151Z,21.40
2019-05-19T08:05:48.320Z,19.50
2019-05-19T08:08:15.535Z,20.70
2019-05-19T08:10:42.869Z,20.33
2019-05-19T08:13:10.117Z,25.33
2019-05-19T08:15:37.320Z,25.10
2019-05-19T08:18:04.501Z,25.90
2019-05-19T08:20:31.790Z,21.17
2019-05-19T08:22:58.880Z,19.37
2019-05-19T08:25:26.078Z,20.53
2019-05-19T08:27:53.284Z,19.00
2019-05-19T08:30:20.772Z,20.20
2019-05-19T08:32:47.944Z,18.97
2019-05-19T08:35:15.748Z,18.60
2019-05-19T08:37:42.950Z,17.87
2019-05-19T08:40:10.138Z,18.10
2019-05-19T08:42:37.344Z,18.23
2019-05-19T08:45:04.994Z,17.00
2019-05-19T08:47:32.192Z,16.20
2019-05-19T08:49:59.415Z,13.60
2019-05-19T08:52:26.614Z,16.23
2019-05-19T08:54:53.908Z,14.93
2019-05-19T08:57:21.392Z,12.83
2019-05-19T08:59:48.583Z,15.47
2019-05-19T09:02:15.776Z,13.20
2019-05-19T09:04:42.973Z,13.70
2019-05-19T09:07:10.178Z,15.30
2019-05-19T09:09:37.795Z,16.73
2019-05-19T09:12:05.028Z,16.87
2019-05-19T09:14:32.894Z,14.70
2019-05-19T09:17:00.403Z,13.63
2019-05-19T09:19:27.897Z,15.30
2019-05-19T09:21:55.080Z,15.30
2019-05-19T09:24:29.950Z,15.07
2019-05-19T09:26:51.396Z,15.10
2019-05-19T09:29:18.657Z,16.07
2019-05-19T09:31:45.865Z,16.57
2019-05-19T09:34:13.080Z,15.50
2019-05-19T09:36:40.271Z,17.47
2019-05-19T09:39:07.436Z,16.47
2019-05-19T09:41:34.684Z,17.30
2019-05-19T09:44:01.977Z,17.90
2019-05-19T09:46:29.167Z,18.27
2019-05-19T09:49:14.460Z,18.23
2019-05-19T09:51:41.640Z,18.83
2019-05-19T09:54:08.829Z,18.57
2019-05-19T09:56:36.010Z,18.10
2019-05-19T09:59:03.295Z,17.77
2019-05-19T10:01:30.497Z,18.20
2019-05-19T10:03:57.504Z,18.73
2019-05-19T10:06:24.716Z,19.10
2019-05-19T10:08:59.713Z,17.20
2019-05-19T10:12:02.352Z,18.03
2019-05-19T10:14:29.665Z,16.67
2019-05-19T10:16:56.852Z,16.97
2019-05-19T10:19:24.048Z,14.93
2019-05-19T10:21:51.274Z,16.07
2019-05-19T10:24:18.598Z,16.60
2019-05-19T10:26:45.947Z,16.40
2019-05-19T10:29:13.141Z,14.73
2019-05-19T10:31:40.316Z,15.17
2019-05-19T10:34:07.504Z,14.50
2019-05-19T10:36:34.701Z,14.43
2019-05-19T10:39:01.905Z,15.17
2019-05-19T10:41:29.098Z,15.13
2019-05-19T10:44:00.814Z,15.43
2019-05-19T10:46:28.302Z,15.90
2019-05-19T10:48:55.588Z,14.23
2019-05-19T10:51:22.789Z,15.37
2019-05-19T10:53:49.968Z,15.30
2019-05-19T10:56:19.132Z,14.90
2019-05-19T10:58:46.303Z,16.90
2019-05-19T11:01:13.496Z,15.30
2019-05-19T11:03:40.701Z,16.80
2019-05-19T11:06:08.903Z,17.57
2019-05-19T11:08:36.088Z,25.30
2019-05-19T11:11:03.305Z,15.60
2019-05-19T11:13:30.571Z,14.93
2019-05-19T11:15:57.769Z,17.10
2019-05-19T11:18:24.976Z,16.43
2019-05-19T11:20:52.169Z,15.73
2019-05-19T11:23:19.373Z,15.30
2019-05-19T11:25:51.555Z,14.53
2019-05-19T11:28:15.729Z,12.57
2019-05-19T11:30:42.930Z,16.07
2019-05-19T11:33:10.117Z,12.40
2019-05-19T11:35:37.319Z,14.13
2019-05-19T11:38:04.500Z,13.30
2019-05-19T11:40:31.704Z,11.90
2019-05-19T11:42:58.884Z,11.77
2019-05-19T11:45:26.138Z,12.07
2019-05-19T11:47:53.332Z,13.63
2019-05-19T11:50:20.526Z,13.50
2019-05-19T11:52:47.717Z,13.47
2019-05-19T11:55:14.903Z,13.60
2019-05-19T11:57:42.109Z,14.80
2019-05-19T12:00:10.182Z,13.13
2019-05-19T12:02:37.376Z,12.13
2019-05-19T12:05:04.596Z,9.13
2019-05-19T12:07:31.785Z,10.93
2019-05-19T12:09:58.972Z,11.50
2019-05-19T12:12:26.177Z,10.23
2019-05-19T12:14:53.363Z,11.90
2019-05-19T12:17:20.553Z,11.97
2019-05-19T12:19:47.742Z,11.53
2019-05-19T12:22:15.124Z,12.37
2019-05-19T12:24:42.314Z,13.47
2019-05-19T12:27:09.639Z,13.10
2019-05-19T12:29:36.805Z,12.47
2019-05-19T12:32:03.998Z,12.90
2019-05-19T12:34:31.190Z,13.33
2019-05-19T12:36:58.377Z,18.47
2019-05-19T12:39:25.563Z,15.83
2019-05-19T12:41:52.891Z,17.53
2019-05-19T12:44:20.250Z,18.00
2019-05-19T12:46:48.340Z,17.27
2019-05-19T12:49:15.538Z,18.27
2019-05-19T12:51:42.779Z,14.70
2019-05-19T12:54:10.013Z,15.53
2019-05-19T12:56:40.102Z,15.70
2019-05-19T12:59:06.309Z,14.93
2019-05-19T13:01:33.526Z,15.87
2019-05-19T13:04:00.781Z,15.47
2019-05-19T13:06:27.957Z,15.70
2019-05-19T13:08:55.156Z,16.03
2019-05-19T13:11:22.328Z,16.43
2019-05-19T13:13:49.536Z,14.27
2019-05-19T13:16:16.740Z,16.27
2019-05-19T13:18:43.932Z,15.80
2019-05-19T13:21:13.352Z,16.20
2019-05-19T13:23:40.546Z,15.03
2019-05-19T13:26:07.731Z,15.47
2019-05-19T13:28:35.036Z,15.00
2019-05-19T13:31:02.240Z,14.70
2019-05-19T13:33:29.461Z,14.87
2019-05-19T13:35:56.712Z,14.40
2019-05-19T13:38:23.908Z,14.20
2019-05-19T13:40:51.111Z,13.63
2019-05-19T13:43:18.297Z,14.90
2019-05-19T13:45:45.497Z,13.80
2019-05-19T13:48:12.719Z,13.87
2019-05-19T13:50:40.075Z,13.73
2019-05-19T13:53:07.244Z,12.73
2019-05-19T13:55:34.454Z,13.00
2019-05-19T13:58:03.545Z,12.23
2019-05-19T14:00:30.708Z,12.07
2019-05-19T14:02:57.900Z,13.80
2019-05-19T14:05:25.068Z,13.70
2019-05-19T14:07:52.253Z,13.40
2019-05-19T14:10:19.536Z,14.23
2019-05-19T14:12:46.721Z,12.87
2019-05-19T14:15:13.900Z,12.17
2019-05-19T14:17:41.104Z,12.70
2019-05-19T14:20:08.894Z,12.37
2019-05-19T14:22:36.160Z,12.67
2019-05-19T14:25:03.748Z,11.27
2019-05-19T14:27:31.163Z,11.93
2019-05-19T14:29:58.541Z,12.67
2019-05-19T14:32:25.772Z,13.33
2019-05-19T14:34:52.953Z,12.63
2019-05-19T14:37:20.193Z,12.17
2019-05-19T14:39:47.528Z,12.33
2019-05-19T14:42:34.340Z,10.87
2019-05-19T14:45:01.839Z,11.60
2019-05-19T14:47:29.033Z,12.00
2019-05-19T14:49:56.325Z,9.90
2019-05-19T14:52:23.520Z,10.70
2019-05-19T14:54:50.789Z,11.03
2019-05-19T14:57:17.995Z,12.37
2019-05-19T14:59:45.189Z,12.13
2019-05-19T15:02:12.385Z,11.40
2019-05-19T15:04:39.573Z,11.07
2019-05-19T15:07:06.774Z,11.97
2019-05-19T15:09:33.961Z,12.67
2019-05-19T15:12:01.181Z,11.80
2019-05-19T15:14:28.441Z,11.97
2019-05-19T15:16:55.629Z,11.03
2019-05-19T15:19:22.809Z,10.87
2019-05-19T15:21:50.017Z,11.00
2019-05-19T15:24:17.211Z,12.73
2019-05-19T15:26:44.404Z,11.07
2019-05-19T15:29:11.593Z,11.40
2019-05-19T15:31:38.789Z,12.60
2019-05-19T15:34:05.971Z,11.80
2019-05-19T15:36:33.196Z,11.07
2019-05-19T15:39:00.464Z,12.30
2019-05-19T15:41:27.805Z,11.13
2019-05-19T15:43:55.088Z,12.77
2019-05-19T15:46:22.284Z,10.90
2019-05-19T15:48:49.480Z,10.80
2019-05-19T15:51:28.036Z,10.30
2019-05-19T15:53:45.816Z,10.37
2019-05-19T15:56:13.009Z,13.97
2019-05-19T15:58:40.212Z,21.10
2019-05-19T16:01:07.381Z,28.23
2019-05-19T16:03:34.675Z,47.43
2019-05-19T16:06:01.898Z,12.13
2019-05-19T16:08:29.088Z,12.30
2019-05-19T16:10:56.280Z,13.60
2019-05-19T16:13:23.478Z,12.90
2019-05-19T16:15:50.754Z,11.50
2019-05-19T16:18:18.079Z,11.50
2019-05-19T16:20:45.348Z,11.77
2019-05-19T16:23:12.533Z,12.50
2019-05-19T16:25:39.719Z,10.40
2019-05-19T16:28:06.914Z,31.27
2019-05-19T16:30:34.089Z,17.87
2019-05-19T16:33:01.276Z,21.87
2019-05-19T16:35:28.481Z,17.50
2019-05-19T16:37:56.772Z,16.77
2019-05-19T16:40:23.952Z,17.70
2019-05-19T16:42:51.441Z,15.97
2019-05-19T16:45:18.977Z,15.63
2019-05-19T16:47:46.180Z,15.13
2019-05-19T16:50:13.480Z,14.43
2019-05-19T16:52:40.708Z,15.60
2019-05-19T16:55:36.460Z,16.57
2019-05-19T16:58:19.564Z,15.67
2019-05-19T17:00:32.873Z,15.97
2019-05-19T17:03:00.073Z,15.23
2019-05-19T17:05:27.276Z,14.50
2019-05-19T17:07:54.485Z,15.17
2019-05-19T17:10:21.685Z,14.90
2019-05-19T17:12:48.865Z,15.50
2019-05-19T17:15:16.164Z,14.40
2019-05-19T17:17:43.368Z,17.40
2019-05-19T17:20:11.235Z,15.27
2019-05-19T17:22:38.420Z,17.87
2019-05-19T17:25:06.160Z,61.53
2019-05-19T17:27:33.349Z,15.10
2019-05-19T17:30:00.540Z,12.90
2019-05-19T17:32:27.752Z,14.07
2019-05-19T17:34:54.954Z,13.27
2019-05-19T17:37:22.149Z,14.10
2019-05-19T17:39:49.351Z,74.53
2019-05-19T17:42:16.531Z,23.20
2019-05-19T17:44:43.712Z,54.63
2019-05-19T17:47:10.906Z,32.43
2019-05-19T17:49:38.102Z,29.43
2019-05-19T17:52:05.293Z,38.07
2019-05-19T17:54:32.513Z,40.70
2019-05-19T17:57:01.529Z,50.37
2019-05-19T17:59:29.538Z,12.90
2019-05-19T18:01:56.749Z,15.97
2019-05-19T18:04:23.918Z,13.13
2019-05-19T18:06:51.125Z,14.60
2019-05-19T18:09:18.348Z,14.37
2019-05-19T18:11:45.534Z,12.50
2019-05-19T18:14:12.726Z,13.73
2019-05-19T18:16:39.924Z,12.53
2019-05-19T18:19:07.388Z,12.23
2019-05-19T18:21:34.582Z,12.40
2019-05-19T18:24:02.269Z,12.37
2019-05-19T18:26:29.508Z,11.37
2019-05-19T18:28:56.804Z,13.03
2019-05-19T18:31:23.999Z,12.73
2019-05-19T18:33:51.204Z,14.60
2019-05-19T18:36:18.483Z,14.00
2019-05-19T18:38:45.676Z,14.67
2019-05-19T18:41:12.854Z,14.70
2019-05-19T18:43:40.048Z,14.33
2019-05-19T18:46:07.248Z,16.20
2019-05-19T18:48:34.428Z,14.50
2019-05-19T18:51:01.629Z,16.23
2019-05-19T18:53:28.910Z,15.70
2019-05-19T18:55:56.492Z,14.90
2019-05-19T18:58:24.022Z,16.17
2019-05-19T19:00:51.209Z,16.47
2019-05-19T19:03:18.401Z,17.10
2019-05-19T19:05:45.597Z,17.50
2019-05-19T19:08:12.793Z,17.67
2019-05-19T19:10:40.010Z,17.70
2019-05-19T19:13:07.286Z,18.80
2019-05-19T19:15:34.481Z,18.60
2019-05-19T19:18:01.768Z,20.97
2019-05-19T19:20:29.120Z,19.80
2019-05-19T19:22:56.320Z,20.60
2019-05-19T19:25:23.498Z,18.23
2019-05-19T19:27:50.702Z,20.00
2019-05-19T19:30:18.082Z,19.53
2019-05-19T19:32:45.271Z,20.13
2019-05-19T19:35:12.859Z,19.23
2019-05-19T19:37:40.061Z,18.33
2019-05-19T19:40:07.474Z,20.20
2019-05-19T19:42:34.669Z,19.33
2019-05-19T19:45:01.946Z,20.60
2019-05-19T19:47:29.313Z,20.30
2019-05-19T19:49:56.513Z,20.90
2019-05-19T19:52:23.721Z,22.00
2019-05-19T19:54:50.896Z,21.70
2019-05-19T19:57:18.118Z,21.20
2019-05-19T19:59:45.312Z,21.40
2019-05-19T20:02:12.515Z,21.70
2019-05-19T20:04:39.813Z,20.53
2019-05-19T20:07:07.113Z,20.87
2019-05-19T20:09:34.321Z,21.83
2019-05-19T20:12:01.521Z,21.33
2019-05-19T20:14:28.769Z,21.30
2019-05-19T20:16:55.940Z,22.03
2019-05-19T20:19:23.172Z,21.67
2019-05-19T20:21:50.445Z,23.00
2019-05-19T20:24:17.680Z,23.93
2019-05-19T20:26:45.125Z,24.93
2019-05-19T20:29:12.316Z,24.60
2019-05-19T20:31:39.501Z,24.40
2019-05-19T20:34:06.724Z,27.03
2019-05-19T20:36:33.936Z,23.67
2019-05-19T20:39:01.220Z,24.50
2019-05-19T20:41:28.424Z,24.80
2019-05-19T20:43:55.632Z,24.87
2019-05-19T20:46:22.816Z,26.30
2019-05-19T20:48:50.006Z,24.30
2019-05-19T20:51:17.196Z,23.93
2019-05-19T20:53:44.405Z,26.20
2019-05-19T20:56:11.616Z,22.77
2019-05-19T20:58:38.836Z,26.47
2019-05-19T21:01:06.023Z,24.53
2019-05-19T21:03:33.201Z,23.87
2019-05-19T21:06:00.389Z,26.37
2019-05-19T21:08:27.568Z,26.07
2019-05-19T21:10:54.750Z,26.03
2019-05-19T21:13:21.944Z,23.60
2019-05-19T21:15:49.121Z,25.40
2019-05-19T21:18:16.439Z,25.77
2019-05-19T21:20:43.630Z,23.80
2019-05-19T21:23:10.916Z,22.80
2019-05-19T21:25:38.084Z,23.30
2019-05-19T21:28:05.269Z,24.77
2019-05-19T21:30:32.451Z,23.93
2019-05-19T21:32:59.630Z,24.93
2019-05-19T21:35:26.823Z,24.80
2019-05-19T21:37:54.016Z,22.27
2019-05-19T21:40:21.240Z,22.37
2019-05-19T21:42:48.427Z,21.60
2019-05-19T21:45:15.608Z,22.90
2019-05-19T21:47:42.800Z,24.50
2019-05-19T21:50:10.197Z,22.43
2019-05-19T21:52:37.381Z,23.43
2019-05-19T21:55:05.396Z,23.77
2019-05-19T21:57:32.637Z,23.20
2019-05-19T21:59:59.925Z,22.73
2019-05-19T22:02:27.228Z,22.60
2019-05-19T22:04:54.444Z,24.30
2019-05-19T22:07:36.893Z,23.13
2019-05-19T22:10:04.207Z,25.77
2019-05-19T22:12:31.846Z,24.93
2019-05-19T22:14:59.030Z,22.17
2019-05-19T22:17:26.238Z,22.70
2019-05-19T22:19:53.404Z,23.70
2019-05-19T22:22:20.596Z,23.50
2019-05-19T22:24:47.794Z,23.57
2019-05-19T22:27:14.988Z,23.80
2019-05-19T22:29:42.164Z,22.93
2019-05-19T22:32:09.368Z,21.60
2019-05-19T22:34:36.540Z,23.90
2019-05-19T22:37:03.733Z,22.83
2019-05-19T22:39:30.932Z,23.60
2019-05-19T22:41:58.120Z,19.80
2019-05-19T22:44:25.304Z,24.30
2019-05-19T22:46:52.501Z,24.00
2019-05-19T22:49:19.672Z,23.60
2019-05-19T22:51:46.868Z,25.50
2019-05-19T22:54:14.052Z,25.17
2019-05-19T22:56:41.232Z,25.67
2019-05-19T22:59:19.410Z,24.10
2019-05-19T23:01:50.986Z,24.90
2019-05-19T23:04:06.640Z,23.97
2019-05-19T23:06:35.728Z,23.73
2019-05-19T23:09:05.168Z,25.17
2019-05-19T23:11:32.348Z,23.70
2019-05-19T23:13:59.732Z,25.60
2019-05-19T23:16:26.921Z,24.83
2019-05-19T23:18:54.114Z,24.97
2019-05-19T23:21:21.292Z,24.70
2019-05-19T23:23:48.496Z,25.60
2019-05-19T23:26:15.673Z,27.00
2019-05-19T23:28:42.881Z,26.87
2019-05-19T23:31:10.085Z,26.47
2019-05-19T23:33:37.272Z,25.77
2019-05-19T23:36:04.456Z,25.63
2019-05-19T23:38:32.169Z,28.03
2019-05-19T23:40:59.352Z,26.90
2019-05-19T23:43:26.563Z,25.53
2019-05-19T23:45:53.948Z,26.50
2019-05-19T23:48:21.136Z,28.93
2019-05-19T23:50:48.317Z,28.43
2019-05-19T23:53:15.500Z,28.27
2019-05-19T23:55:42.672Z,27.37
2019-05-19T23:58:09.864Z,30.10
